createdAt,value
2022-08-11T00:02:00.670Z,52.28
2022-08-11T00:04:34.579Z,52.61
2022-08-11T00:07:05.041Z,52.57
2022-08-11T00:09:39.288Z,53.05
2022-08-11T00:12:14.777Z,52.76
2022-08-11T00:14:42.880Z,53.12
2022-08-11T00:17:12.483Z,53.57
2022-08-11T00:20:13.898Z,53.60
2022-08-11T00:22:33.252Z,53.52
2022-08-11T00:25:08.870Z,53.73
2022-08-11T00:27:37.245Z,53.72
2022-08-11T00:30:08.677Z,53.89
2022-08-11T00:32:37.805Z,54.06
2022-08-11T00:35:54.046Z,54.00
2022-08-11T00:37:57.004Z,54.03
2022-08-11T00:40:34.642Z,53.82
2022-08-11T00:43:01.715Z,54.21
2022-08-11T00:45:43.007Z,54.11
2022-08-11T00:48:38.551Z,54.12
2022-08-11T00:52:04.183Z,54.17
2022-08-11T00:54:39.643Z,54.77
2022-08-11T00:57:43.890Z,54.14
2022-08-11T01:00:19.589Z,54.64
2022-08-11T01:02:55.001Z,55.03
2022-08-11T01:05:40.216Z,55.62
2022-08-11T01:08:12.650Z,55.81
2022-08-11T01:10:51.269Z,56.22
2022-08-11T01:13:37.088Z,56.20
2022-08-11T01:16:37.344Z,56.23
2022-08-11T01:19:25.690Z,56.18
2022-08-11T01:22:12.359Z,56.99
2022-08-11T01:25:03.793Z,56.81
2022-08-11T01:28:08.187Z,57.05
2022-08-11T01:30:56.576Z,57.56
2022-08-11T01:33:44.792Z,57.59
2022-08-11T01:36:42.701Z,57.98
2022-08-11T01:39:18.352Z,58.12
2022-08-11T01:42:09.792Z,58.01
2022-08-11T01:44:57.222Z,58.08
2022-08-11T01:47:53.336Z,58.29
2022-08-11T01:50:40.454Z,58.02
2022-08-11T01:53:23.833Z,58.29
2022-08-11T01:56:00.824Z,58.42
2022-08-11T01:58:46.435Z,58.48
2022-08-11T02:01:12.902Z,58.86
2022-08-11T02:03:49.704Z,58.69
2022-08-11T02:06:57.408Z,58.61
2022-08-11T02:09:49.554Z,58.53
2022-08-11T02:12:31.871Z,58.65
2022-08-11T02:15:45.726Z,58.52
2022-08-11T02:18:48.383Z,59.33
2022-08-11T02:21:42.337Z,59.75
2022-08-11T02:24:21.109Z,59.91
2022-08-11T02:26:56.640Z,59.83
2022-08-11T02:29:33.107Z,59.96
2022-08-11T02:32:55.103Z,59.84
2022-08-11T02:35:32.850Z,60.19
2022-08-11T02:38:24.664Z,60.38
2022-08-11T02:41:32.317Z,61.11
2022-08-11T02:44:17.045Z,61.57
2022-08-11T02:47:07.158Z,61.83
2022-08-11T02:50:00.027Z,61.94
2022-08-11T02:53:07.628Z,61.53
2022-08-11T02:55:57.247Z,62.03
2022-08-11T02:58:41.391Z,62.46
2022-08-11T03:01:37.322Z,62.46
2022-08-11T03:04:11.518Z,62.62
2022-08-11T03:07:05.886Z,62.70
2022-08-11T03:10:21.383Z,62.50
2022-08-11T03:13:26.886Z,63.18
2022-08-11T03:16:42.036Z,63.62
2022-08-11T03:19:30.280Z,64.25
2022-08-11T03:22:16.453Z,64.47
2022-08-11T03:25:31.567Z,64.53
2022-08-11T03:28:10.226Z,65.03
2022-08-11T03:30:39.453Z,65.23
2022-08-11T03:33:33.901Z,65.27
2022-08-11T03:36:06.152Z,65.36
2022-08-11T03:38:44.010Z,65.12
2022-08-11T03:42:03.515Z,65.25
2022-08-11T03:44:40.738Z,65.59
2022-08-11T03:47:18.790Z,65.68
2022-08-11T03:50:17.219Z,65.94
2022-08-11T03:52:53.527Z,66.51
2022-08-11T03:55:33.763Z,66.69
2022-08-11T03:58:33.615Z,66.45
2022-08-11T04:01:37.973Z,66.80
2022-08-11T04:04:10.332Z,67.07
2022-08-11T04:07:07.889Z,66.51
2022-08-11T04:09:55.823Z,66.89
2022-08-11T04:12:36.680Z,67.21
2022-08-11T04:16:00.693Z,67.12
2022-08-11T04:18:56.379Z,67.93
2022-08-11T04:22:00.366Z,67.80
2022-08-11T04:24:39.861Z,67.82
2022-08-11T04:27:36.996Z,68.50
2022-08-11T04:30:21.660Z,68.22
2022-08-11T04:33:29.913Z,68.04
2022-08-11T04:36:56.212Z,67.91
2022-08-11T04:39:53.677Z,67.88
2022-08-11T04:43:13.907Z,68.09
2022-08-11T04:46:18.988Z,68.18
2022-08-11T04:49:27.507Z,68.98
2022-08-11T04:52:43.934Z,68.89
2022-08-11T04:55:53.866Z,68.83
2022-08-11T04:58:54.385Z,68.73
2022-08-11T05:01:44.201Z,68.82
2022-08-11T05:05:00.108Z,68.87
2022-08-11T05:07:55.127Z,69.01
2022-08-11T05:10:43.542Z,68.85
2022-08-11T05:13:30.423Z,68.60
2022-08-11T05:16:28.354Z,68.83
2022-08-11T05:19:16.115Z,68.96
2022-08-11T05:22:06.934Z,68.71
2022-08-11T05:25:00.824Z,68.66
2022-08-11T05:27:55.453Z,68.16
2022-08-11T05:30:49.415Z,68.12
2022-08-11T05:33:42.121Z,67.98
2022-08-11T05:36:29.970Z,67.70
2022-08-11T05:39:36.264Z,67.55
2022-08-11T05:42:30.165Z,67.47
2022-08-11T05:45:28.575Z,67.28
2022-08-11T05:48:33.800Z,67.01
2022-08-11T05:51:25.539Z,67.07
2022-08-11T05:54:28.156Z,67.12
2022-08-11T05:57:02.109Z,66.45
2022-08-11T05:59:29.572Z,66.23
2022-08-11T06:02:04.987Z,66.34
2022-08-11T06:04:32.443Z,66.06
2022-08-11T06:07:05.646Z,65.96
2022-08-11T06:09:34.817Z,65.69
2022-08-11T06:12:06.623Z,65.35
2022-08-11T06:14:34.506Z,65.16
2022-08-11T06:17:03.740Z,64.74
2022-08-11T06:19:41.573Z,64.60
2022-08-11T06:22:11.308Z,64.63
2022-08-11T06:24:42.436Z,64.47
2022-08-11T06:27:12.649Z,64.03
2022-08-11T06:29:55.299Z,63.51
2022-08-11T06:32:35.948Z,62.95
2022-08-11T06:35:10.178Z,62.74
2022-08-11T06:37:45.299Z,62.29
2022-08-11T06:40:25.760Z,62.04
2022-08-11T06:43:02.262Z,62.25
2022-08-11T06:45:40.455Z,61.60
2022-08-11T06:48:15.021Z,61.27
2022-08-11T06:51:05.761Z,61.16
2022-08-11T06:53:34.680Z,60.64
2022-08-11T06:56:20.329Z,60.72
2022-08-11T06:59:07.789Z,60.77
2022-08-11T07:01:47.807Z,60.56
2022-08-11T07:04:29.289Z,60.07
2022-08-11T07:07:50.654Z,59.43
2022-08-11T07:11:01.904Z,58.77
2022-08-11T07:13:50.632Z,58.04
2022-08-11T07:16:26.529Z,58.21
2022-08-11T07:19:20.408Z,56.03
2022-08-11T07:22:07.260Z,54.25
2022-08-11T07:25:09.664Z,53.32
2022-08-11T07:28:04.591Z,52.96
2022-08-11T07:30:34.430Z,52.11
2022-08-11T07:33:03.027Z,50.98
2022-08-11T07:35:49.762Z,50.55
2022-08-11T07:38:25.154Z,49.24
2022-08-11T07:40:52.361Z,48.83
2022-08-11T07:43:19.285Z,48.97
2022-08-11T07:46:05.361Z,47.95
2022-08-11T07:48:52.312Z,47.66
2022-08-11T07:51:39.058Z,46.30
2022-08-11T07:54:16.946Z,47.30
2022-08-11T07:56:55.106Z,45.89
2022-08-11T08:00:04.124Z,45.88
2022-08-11T08:02:50.080Z,45.90
2022-08-11T08:05:36.387Z,44.37
2022-08-11T08:08:21.955Z,44.61
2022-08-11T08:11:08.322Z,44.55
2022-08-11T08:13:54.225Z,43.74
2022-08-11T08:16:39.641Z,43.38
2022-08-11T08:19:06.600Z,42.35
2022-08-11T08:21:33.426Z,42.61
2022-08-11T08:24:00.948Z,42.06
2022-08-11T08:26:51.250Z,42.33
2022-08-11T08:29:38.608Z,41.44
2022-08-11T08:32:06.951Z,40.30
2022-08-11T08:34:37.155Z,39.48
2022-08-11T08:37:16.042Z,38.02
2022-08-11T08:39:53.901Z,37.70
2022-08-11T08:42:26.485Z,38.71
2022-08-11T08:45:02.047Z,37.86
2022-08-11T08:47:41.597Z,37.14
2022-08-11T08:50:18.139Z,37.32
2022-08-11T08:52:54.419Z,37.32
2022-08-11T08:55:22.366Z,37.25
2022-08-11T08:57:51.354Z,36.45
2022-08-11T09:00:22.974Z,35.22
2022-08-11T09:02:51.852Z,36.19
2022-08-11T09:05:20.055Z,37.50
2022-08-11T09:07:51.064Z,34.83
2022-08-11T09:10:20.356Z,35.11
2022-08-11T09:12:48.221Z,34.86
2022-08-11T09:15:19.644Z,33.43
2022-08-11T09:17:48.835Z,33.75
2022-08-11T09:20:21.446Z,33.81
2022-08-11T09:26:19.142Z,31.95
2022-08-11T09:28:47.389Z,30.83
2022-08-11T09:31:15.241Z,32.03
2022-08-11T09:33:43.774Z,32.11
2022-08-11T09:36:39.136Z,31.83
2022-08-11T09:39:25.128Z,32.43
2022-08-11T09:42:01.458Z,32.73
2022-08-11T09:44:49.571Z,31.75
2022-08-11T09:47:22.918Z,31.03
2022-08-11T09:49:52.721Z,32.15
2022-08-11T09:52:20.573Z,30.91
2022-08-11T09:54:48.765Z,31.01
2022-08-11T09:57:37.488Z,30.29
2022-08-11T10:00:12.629Z,29.52
2022-08-11T10:02:43.854Z,29.85
2022-08-11T10:05:32.395Z,29.85
2022-08-11T10:08:01.459Z,28.56
2022-08-11T10:10:29.257Z,28.11
2022-08-11T10:13:04.228Z,29.49
2022-08-11T10:15:35.604Z,29.42
2022-08-11T10:18:26.772Z,28.46
2022-08-11T10:21:21.255Z,27.31
2022-08-11T10:24:06.402Z,28.60
2022-08-11T10:26:52.232Z,28.57
2022-08-11T10:29:45.372Z,27.43
2022-08-11T10:32:49.370Z,27.93
2022-08-11T10:35:27.246Z,27.80
2022-08-11T10:38:06.435Z,27.19
2022-08-11T10:40:38.829Z,27.09
2022-08-11T10:43:06.983Z,26.17
2022-08-11T10:45:55.023Z,25.85
2022-08-11T10:48:23.924Z,26.80
2022-08-11T10:51:10.291Z,26.85
2022-08-11T10:53:58.529Z,27.66
2022-08-11T10:56:47.908Z,28.19
2022-08-11T10:59:16.029Z,27.16
2022-08-11T11:01:44.250Z,27.65
2022-08-11T11:04:20.146Z,27.79
2022-08-11T11:07:13.765Z,27.57
2022-08-11T11:09:53.216Z,27.16
2022-08-11T11:13:00.927Z,27.67
2022-08-11T11:15:48.800Z,26.25
2022-08-11T11:18:28.743Z,26.44
2022-08-11T11:21:01.168Z,26.49
2022-08-11T11:23:52.335Z,27.47
2022-08-11T11:26:35.791Z,28.12
2022-08-11T11:29:21.278Z,27.52
2022-08-11T11:32:13.704Z,28.48
2022-08-11T11:34:59.380Z,28.92
2022-08-11T11:37:26.591Z,28.04
2022-08-11T11:39:55.161Z,29.44
2022-08-11T11:42:22.122Z,28.21
2022-08-11T11:44:49.087Z,28.52
2022-08-11T11:47:21.702Z,27.73
2022-08-11T11:49:49.609Z,27.67
2022-08-11T11:52:19.619Z,28.39
2022-08-11T11:54:50.520Z,29.21
2022-08-11T11:57:36.966Z,29.05
2022-08-11T12:00:33.586Z,28.07
2022-08-11T12:03:05.130Z,28.85
2022-08-11T12:05:34.209Z,28.39
2022-08-11T12:08:17.882Z,30.04
2022-08-11T12:11:10.973Z,28.84
2022-08-11T12:13:40.710Z,29.71
2022-08-11T12:16:33.538Z,28.34
2022-08-11T12:18:59.857Z,27.64
2022-08-11T12:21:30.404Z,27.44
2022-08-11T12:24:18.826Z,26.76
2022-08-11T12:26:54.247Z,27.91
2022-08-11T12:29:36.436Z,27.43
2022-08-11T12:32:08.968Z,26.05
2022-08-11T12:34:36.585Z,26.25
2022-08-11T12:37:06.834Z,26.43
2022-08-11T12:40:16.699Z,25.55
2022-08-11T12:43:08.328Z,25.85
2022-08-11T12:45:48.776Z,26.33
2022-08-11T12:49:00.846Z,25.89
2022-08-11T12:52:03.021Z,24.90
2022-08-11T12:54:49.564Z,25.23
2022-08-11T12:57:39.417Z,23.82
2022-08-11T13:00:26.028Z,24.99
2022-08-11T13:03:12.906Z,25.37
2022-08-11T13:05:44.716Z,25.07
2022-08-11T13:08:15.153Z,26.17
2022-08-11T13:11:01.563Z,26.25
2022-08-11T13:13:54.455Z,26.15
2022-08-11T13:16:17.097Z,25.69
2022-08-11T13:18:44.277Z,26.27
2022-08-11T13:21:20.471Z,25.61
2022-08-11T13:24:01.087Z,25.24
2022-08-11T13:26:46.759Z,24.74
2022-08-11T13:29:24.309Z,24.58
2022-08-11T13:31:53.784Z,26.08
2022-08-11T13:34:22.779Z,25.71
2022-08-11T13:36:52.477Z,28.08
2022-08-11T13:39:21.390Z,28.60
2022-08-11T13:41:51.307Z,28.93
2022-08-11T13:44:24.772Z,26.61
2022-08-11T13:46:54.113Z,26.27
2022-08-11T13:49:21.977Z,25.98
2022-08-11T13:51:49.303Z,25.18
2022-08-11T13:54:22.680Z,25.21
2022-08-11T13:56:52.894Z,24.85
2022-08-11T13:59:23.002Z,27.38
2022-08-11T14:02:20.482Z,25.45
2022-08-11T14:04:56.979Z,27.22
2022-08-11T14:07:34.458Z,26.27
2022-08-11T14:10:01.875Z,25.64
2022-08-11T14:12:49.957Z,26.57
2022-08-11T14:15:25.100Z,26.47
2022-08-11T14:18:03.227Z,25.87
2022-08-11T14:20:52.383Z,25.78
2022-08-11T14:23:25.880Z,26.61
2022-08-11T14:26:11.274Z,25.78
2022-08-11T14:28:44.442Z,25.92
2022-08-11T14:31:14.361Z,26.54
2022-08-11T14:33:59.504Z,26.56
2022-08-11T14:36:56.922Z,26.61
2022-08-11T14:39:29.510Z,26.67
2022-08-11T14:42:19.148Z,24.36
2022-08-11T14:45:06.948Z,24.34
2022-08-11T14:47:38.344Z,24.16
2022-08-11T14:50:11.409Z,24.11
2022-08-11T14:52:43.570Z,23.81
2022-08-11T14:55:30.480Z,23.90
2022-08-11T14:57:57.497Z,24.49
2022-08-11T15:00:25.346Z,23.77
2022-08-11T15:03:12.246Z,23.89
2022-08-11T15:05:55.787Z,24.51
2022-08-11T15:08:45.718Z,26.40
2022-08-11T15:11:32.798Z,25.76
2022-08-11T15:14:02.206Z,24.68
2022-08-11T15:16:48.143Z,24.30
2022-08-11T15:19:15.788Z,23.64
2022-08-11T15:22:00.961Z,23.78
2022-08-11T15:24:30.686Z,22.88
2022-08-11T15:27:19.364Z,23.93
2022-08-11T15:30:06.344Z,25.35
2022-08-11T15:32:53.544Z,25.10
2022-08-11T15:35:39.674Z,22.71
2022-08-11T15:38:11.601Z,22.46
2022-08-11T15:40:59.087Z,22.39
2022-08-11T15:43:49.471Z,23.63
2022-08-11T15:46:47.323Z,23.62
2022-08-11T15:49:22.153Z,23.38
2022-08-11T15:52:02.859Z,23.33
2022-08-11T15:54:31.876Z,23.38
2022-08-11T15:57:01.827Z,23.40
2022-08-11T15:59:50.561Z,22.91
2022-08-11T16:02:40.530Z,22.90
2022-08-11T16:05:13.169Z,23.72
2022-08-11T16:07:41.293Z,23.46
2022-08-11T16:10:19.385Z,23.29
2022-08-11T16:13:05.882Z,23.10
2022-08-11T16:16:03.879Z,23.40
2022-08-11T16:18:42.130Z,23.78
2022-08-11T16:21:34.187Z,23.08
2022-08-11T16:24:00.731Z,23.57
2022-08-11T16:27:11.606Z,23.47
2022-08-11T16:29:16.801Z,23.09
2022-08-11T16:32:03.885Z,22.66
2022-08-11T16:34:50.395Z,22.88
2022-08-11T16:37:36.750Z,23.27
2022-08-11T16:40:05.558Z,22.91
2022-08-11T16:43:00.188Z,22.83
2022-08-11T16:45:57.411Z,22.87
2022-08-11T16:48:36.215Z,22.41
2022-08-11T16:51:08.211Z,23.33
2022-08-11T16:53:59.704Z,23.57
2022-08-11T16:56:45.013Z,23.21
2022-08-11T16:59:18.308Z,23.14
2022-08-11T17:01:47.444Z,23.44
2022-08-11T17:04:39.255Z,24.33
2022-08-11T17:07:40.264Z,23.82
2022-08-11T17:10:51.202Z,23.96
2022-08-11T17:13:26.009Z,24.18
2022-08-11T17:16:11.948Z,24.05
2022-08-11T17:18:51.489Z,24.33
2022-08-11T17:21:27.704Z,25.03
2022-08-11T17:23:58.984Z,24.95
2022-08-11T17:26:51.675Z,25.63
2022-08-11T17:29:53.865Z,25.97
2022-08-11T17:33:10.063Z,25.95
2022-08-11T17:35:40.987Z,26.38
2022-08-11T17:38:10.184Z,26.04
2022-08-11T17:40:38.961Z,26.11
2022-08-11T17:43:28.126Z,26.47
2022-08-11T17:46:15.582Z,26.48
2022-08-11T17:48:47.562Z,27.21
2022-08-11T17:51:41.904Z,26.91
2022-08-11T17:54:28.276Z,28.14
2022-08-11T17:57:20.094Z,28.97
2022-08-11T17:59:52.165Z,27.76
2022-08-11T18:02:54.023Z,28.17
2022-08-11T18:05:23.775Z,27.38
2022-08-11T18:08:14.921Z,28.24
2022-08-11T18:11:01.316Z,27.48
2022-08-11T18:13:50.376Z,28.54
2022-08-11T18:16:37.287Z,28.00
2022-08-11T18:19:24.632Z,28.59
2022-08-11T18:22:15.708Z,29.79
2022-08-11T18:25:10.206Z,29.32
2022-08-11T18:27:59.243Z,31.10
2022-08-11T18:30:45.147Z,31.48
2022-08-11T18:34:03.924Z,31.92
2022-08-11T18:36:48.418Z,31.95
2022-08-11T18:39:35.062Z,32.59
2022-08-11T18:42:28.993Z,31.63
2022-08-11T18:45:19.599Z,31.96
2022-08-11T18:48:07.463Z,33.26
2022-08-11T18:51:29.529Z,32.60
2022-08-11T18:54:08.023Z,31.81
2022-08-11T18:56:54.187Z,33.05
2022-08-11T18:59:43.300Z,33.46
2022-08-11T19:02:31.250Z,34.64
2022-08-11T19:05:18.031Z,32.96
2022-08-11T19:08:07.370Z,34.33
2022-08-11T19:10:53.715Z,33.20
2022-08-11T19:13:43.440Z,34.09
2022-08-11T19:16:29.927Z,34.36
2022-08-11T19:19:16.706Z,34.47
2022-08-11T19:22:02.068Z,34.58
2022-08-11T19:24:49.339Z,34.68
2022-08-11T19:27:36.191Z,34.06
2022-08-11T19:30:21.581Z,36.59
2022-08-11T19:33:07.811Z,36.02
2022-08-11T19:35:53.691Z,34.95
2022-08-11T19:38:40.171Z,35.54
2022-08-11T19:41:45.447Z,35.43
2022-08-11T19:44:33.911Z,36.09
2022-08-11T19:47:21.027Z,37.28
2022-08-11T19:50:08.038Z,36.16
2022-08-11T19:52:55.023Z,35.17
2022-08-11T19:55:40.631Z,36.73
2022-08-11T19:58:26.045Z,35.39
2022-08-11T20:01:11.523Z,36.93
2022-08-11T20:03:56.806Z,36.17
2022-08-11T20:06:42.853Z,37.08
2022-08-11T20:10:04.845Z,36.58
2022-08-11T20:12:36.816Z,36.74
2022-08-11T20:15:23.834Z,36.21
2022-08-11T20:18:09.043Z,37.04
2022-08-11T20:20:54.385Z,36.15
2022-08-11T20:23:40.134Z,36.50
2022-08-11T20:26:31.147Z,35.93
2022-08-11T20:29:18.334Z,36.89
2022-08-11T20:32:06.416Z,37.90
2022-08-11T20:34:56.509Z,37.74
2022-08-11T20:37:43.511Z,36.87
2022-08-11T20:40:30.399Z,37.45
2022-08-11T20:44:06.362Z,36.97
2022-08-11T20:46:25.069Z,37.45
2022-08-11T20:49:12.434Z,37.92
2022-08-11T20:51:58.639Z,37.90
2022-08-11T20:54:46.079Z,38.38
2022-08-11T21:00:41.626Z,38.16
2022-08-11T21:03:35.530Z,38.91
2022-08-11T21:06:31.252Z,38.93
2022-08-11T21:09:58.756Z,39.77
2022-08-11T21:12:31.500Z,39.73
2022-08-11T21:15:30.791Z,39.55
2022-08-11T21:18:29.391Z,39.75
2022-08-11T21:21:18.396Z,40.56
2022-08-11T21:24:06.780Z,41.18
2022-08-11T21:27:00.340Z,40.39
2022-08-11T21:29:49.228Z,41.16
2022-08-11T21:32:36.682Z,41.20
2022-08-11T21:35:22.640Z,41.08
2022-08-11T21:38:10.007Z,41.84
2022-08-11T21:40:57.914Z,41.78
2022-08-11T21:43:44.747Z,41.89
2022-08-11T21:46:33.660Z,42.74
2022-08-11T21:49:21.979Z,42.90
2022-08-11T21:52:06.727Z,42.64
2022-08-11T21:54:51.606Z,42.94
2022-08-11T21:57:37.475Z,43.80
2022-08-11T22:00:33.802Z,43.57
2022-08-11T22:03:19.631Z,44.27
2022-08-11T22:06:05.443Z,44.67
2022-08-11T22:08:50.426Z,44.74
2022-08-11T22:11:38.703Z,44.82
2022-08-11T22:14:24.102Z,44.76
2022-08-11T22:17:09.407Z,45.19
2022-08-11T22:19:56.214Z,45.29
2022-08-11T22:22:51.913Z,45.55
2022-08-11T22:25:41.793Z,45.39
2022-08-11T22:28:36.682Z,45.81
2022-08-11T22:31:24.099Z,45.87
2022-08-11T22:34:09.382Z,45.98
2022-08-11T22:36:55.161Z,46.88
2022-08-11T22:39:41.632Z,47.02
2022-08-11T22:42:33.478Z,46.65
2022-08-11T22:45:20.052Z,46.52
2022-08-11T22:48:06.771Z,47.18
2022-08-11T22:50:54.839Z,47.52
2022-08-11T22:53:57.644Z,47.40
2022-08-11T22:56:44.947Z,47.89
2022-08-11T22:59:31.851Z,48.02
2022-08-11T23:02:17.227Z,48.19
2022-08-11T23:05:02.975Z,48.80
2022-08-11T23:07:51.303Z,48.37
2022-08-11T23:10:39.341Z,49.21
2022-08-11T23:13:26.031Z,49.29
2022-08-11T23:16:12.911Z,49.48
2022-08-11T23:18:59.773Z,49.01
2022-08-11T23:21:46.258Z,48.94
2022-08-11T23:24:32.200Z,49.17
2022-08-11T23:27:20.627Z,49.10
2022-08-11T23:30:07.449Z,49.41
2022-08-11T23:32:53.659Z,49.47
2022-08-11T23:35:53.898Z,49.87
2022-08-11T23:38:43.425Z,50.63
2022-08-11T23:41:31.695Z,50.52
2022-08-11T23:44:17.385Z,50.23
2022-08-11T23:47:03.275Z,51.16
2022-08-11T23:49:48.692Z,51.09
2022-08-11T23:52:35.225Z,51.20
2022-08-11T23:55:21.406Z,52.26
2022-08-11T23:58:06.756Z,51.91
